createdAt,value
2018-10-16T12:13:19.130Z,2593.13
2018-10-16T12:14:19.100Z,2716.88
2018-10-16T12:15:19.114Z,2801.25
2018-10-16T12:16:19.068Z,2565.00
2018-10-16T12:17:19.058Z,2576.25
2018-10-16T12:18:19.038Z,2520.00
2018-10-16T12:19:19.068Z,2598.75
2018-10-16T12:20:19.013Z,2531.25
2018-10-16T12:21:27.790Z,2733.75
2018-10-16T12:22:18.985Z,2761.88
2018-10-16T12:23:18.970Z,2610.00
2018-10-16T12:24:18.957Z,2553.75
2018-10-16T12:25:18.947Z,2514.38
2018-10-16T12:26:18.947Z,2587.50
2018-10-16T12:27:18.921Z,2716.88
2018-10-16T12:28:18.908Z,2666.25
2018-10-16T12:29:18.896Z,2401.88
2018-10-16T12:30:18.900Z,2531.25
2018-10-16T12:31:18.874Z,2660.63
2018-10-16T12:32:18.902Z,2683.13
2018-10-16T12:33:18.851Z,2463.75
2018-10-16T12:34:18.840Z,2722.50
2018-10-16T12:35:18.843Z,2818.13
2018-10-16T12:36:18.820Z,2761.88
2018-10-16T12:37:18.805Z,2531.25
2018-10-16T12:38:18.810Z,2525.63
2018-10-16T12:39:18.871Z,2362.50
2018-10-16T12:40:18.870Z,2773.13
2018-10-16T12:41:18.759Z,2565.00
2018-10-16T12:42:18.750Z,2716.88
2018-10-16T12:43:18.786Z,2761.88
2018-10-16T12:44:18.726Z,2598.75
2018-10-16T12:45:18.716Z,2660.63
2018-10-16T12:46:18.722Z,2778.75
2018-10-16T12:47:18.696Z,2846.25
2018-10-16T12:48:18.683Z,2778.75
2018-10-16T12:49:18.673Z,2745.00
2018-10-16T12:50:18.679Z,2728.13
2018-10-16T12:51:18.669Z,2891.25
2018-10-16T12:52:18.643Z,2756.25
2018-10-16T12:53:18.636Z,2655.00
2018-10-16T12:54:18.625Z,2677.50
2018-10-16T12:55:18.611Z,2801.25
2018-10-16T12:56:18.627Z,2790.00
2018-10-16T12:57:18.640Z,2733.75
2018-10-16T12:58:18.593Z,2548.13
2018-10-16T12:59:18.573Z,2581.88
2018-10-16T13:00:18.564Z,2761.88
2018-10-16T13:01:18.557Z,2716.88
2018-10-16T13:02:18.559Z,2553.75
2018-10-16T13:03:18.532Z,2716.88
2018-10-16T13:04:18.521Z,2700.00
2018-10-16T13:05:18.513Z,2660.63
2018-10-16T13:06:18.504Z,2711.25
2018-10-16T13:07:18.508Z,2671.88
2018-10-16T13:08:18.483Z,2671.88
2018-10-16T13:09:18.474Z,2598.75
2018-10-16T13:10:18.466Z,2508.75
2018-10-16T13:11:18.460Z,2463.75
2018-10-16T13:12:18.461Z,2491.88
2018-10-16T13:13:18.436Z,2621.25
2018-10-16T13:14:18.467Z,2643.75
2018-10-16T13:15:18.417Z,2458.13
2018-10-16T13:16:18.408Z,2356.88
2018-10-16T13:17:18.439Z,2638.13
2018-10-16T13:18:18.399Z,2700.00
2018-10-16T13:19:18.381Z,2520.00
2018-10-16T13:20:18.371Z,2638.13
2018-10-16T13:21:18.362Z,2480.63
2018-10-16T13:22:18.367Z,2244.38
2018-10-16T13:23:18.361Z,1980.00
2018-10-16T13:24:18.335Z,1721.25
2018-10-16T13:25:18.324Z,1546.88
2018-10-16T13:26:18.317Z,1361.25
2018-10-16T13:27:18.319Z,1175.63
2018-10-16T13:28:18.297Z,1091.25
2018-10-16T13:29:18.415Z,950.63
2018-10-16T13:30:18.280Z,916.88
2018-10-16T13:31:18.268Z,911.25
2018-10-16T13:32:18.277Z,888.75
2018-10-16T13:33:18.251Z,877.50
2018-10-16T13:34:18.242Z,838.13
2018-10-16T13:35:18.232Z,815.63
2018-10-16T13:36:18.222Z,753.75
2018-10-16T13:37:18.211Z,691.88
2018-10-16T13:38:18.218Z,646.88
2018-10-16T13:39:18.192Z,613.13
2018-10-16T13:40:18.194Z,590.63
2018-10-16T13:41:18.175Z,573.75
2018-10-16T13:42:18.201Z,579.38
2018-10-16T13:43:18.173Z,579.38
2018-10-16T13:44:18.148Z,568.13
2018-10-16T13:45:18.132Z,556.88
2018-10-16T13:46:18.215Z,551.25
2018-10-16T13:47:18.118Z,556.88
2018-10-16T13:48:18.107Z,641.25
2018-10-16T13:49:18.112Z,793.13
2018-10-16T13:50:18.100Z,1237.50
2018-10-16T13:51:18.082Z,1794.38
2018-10-16T13:52:18.073Z,2126.25
2018-10-16T13:53:18.064Z,2176.88
2018-10-16T13:54:18.073Z,2430.00
2018-10-16T13:55:18.047Z,2497.50
2018-10-16T13:56:18.040Z,2491.88
2018-10-16T13:57:18.030Z,2565.00
2018-10-16T13:58:18.023Z,2671.88
2018-10-16T13:59:18.050Z,2508.75
2018-10-16T14:00:18.006Z,2390.63
2018-10-16T14:01:17.998Z,1698.75
2018-10-16T14:02:17.993Z,675.00
2018-10-16T14:03:17.984Z,421.88
2018-10-16T14:04:17.975Z,410.63
2018-10-16T14:05:17.981Z,405.00
2018-10-16T14:06:17.961Z,405.00
2018-10-16T14:07:17.948Z,405.00
2018-10-16T14:08:17.939Z,399.38
2018-10-16T14:09:17.933Z,399.38
2018-10-16T14:10:17.939Z,399.38
2018-10-16T14:11:17.915Z,393.75
2018-10-16T14:12:17.908Z,393.75
2018-10-16T14:13:17.902Z,393.75
2018-10-16T14:14:17.937Z,399.38
2018-10-16T14:15:17.896Z,776.25
2018-10-16T14:16:18.001Z,1687.50
2018-10-16T14:17:17.864Z,2171.25
2018-10-16T14:18:17.856Z,2188.13
2018-10-16T14:19:17.847Z,2176.88
2018-10-16T14:20:17.855Z,2171.25
2018-10-16T14:21:17.826Z,2210.63
2018-10-16T14:22:17.835Z,1687.50
2018-10-16T14:23:17.822Z,798.75
2018-10-16T14:24:17.800Z,410.63
2018-10-16T14:25:17.807Z,376.88
2018-10-16T14:26:17.837Z,371.25
2018-10-16T14:27:17.778Z,365.63
2018-10-16T14:28:17.771Z,360.00
2018-10-16T14:29:17.759Z,360.00
2018-10-16T14:30:17.767Z,354.38
2018-10-16T14:31:17.743Z,354.38
2018-10-16T14:32:17.817Z,348.75
2018-10-16T14:33:17.723Z,343.13
2018-10-16T14:34:17.845Z,337.50
2018-10-16T14:35:17.706Z,337.50
2018-10-16T14:36:17.702Z,337.50
2018-10-16T14:37:17.688Z,331.88
2018-10-16T14:38:17.752Z,331.88
2018-10-16T14:39:17.666Z,320.63
2018-10-16T14:40:17.710Z,326.25
2018-10-16T14:41:17.655Z,320.63
2018-10-16T14:42:17.643Z,315.00
2018-10-16T14:43:17.629Z,309.38
2018-10-16T14:44:17.625Z,309.38
2018-10-16T14:45:17.623Z,309.38
2018-10-16T14:46:17.605Z,303.75
2018-10-16T14:47:17.594Z,303.75
2018-10-16T14:48:17.583Z,303.75
2018-10-16T14:49:17.573Z,298.13
2018-10-16T14:50:17.584Z,298.13
2018-10-16T14:51:17.553Z,298.13
2018-10-16T14:52:17.545Z,292.50
2018-10-16T14:53:17.532Z,286.88
2018-10-16T14:54:17.521Z,281.25
2018-10-16T14:55:17.510Z,270.00
2018-10-16T14:56:17.512Z,281.25
2018-10-16T14:57:17.488Z,258.75
2018-10-16T14:58:17.520Z,253.13
2018-10-16T14:59:17.470Z,253.13
2018-10-16T15:00:17.459Z,247.50
2018-10-16T15:01:17.460Z,247.50
2018-10-16T15:02:17.440Z,241.88
2018-10-16T15:03:17.423Z,236.25
2018-10-16T15:04:17.414Z,230.63
2018-10-16T15:05:17.406Z,225.00
2018-10-16T15:06:17.409Z,219.38
2018-10-16T15:07:17.387Z,219.38
2018-10-16T15:08:17.520Z,219.38
2018-10-16T15:09:17.361Z,225.00
2018-10-16T15:10:17.391Z,225.00
2018-10-16T15:11:17.355Z,213.75
2018-10-16T15:12:17.326Z,213.75
2018-10-16T15:13:17.317Z,213.75
2018-10-16T15:14:17.306Z,213.75
2018-10-16T15:15:17.293Z,213.75
2018-10-16T15:16:17.419Z,213.75
2018-10-16T15:17:17.273Z,219.38
2018-10-16T15:18:17.259Z,225.00
2018-10-16T15:19:17.247Z,230.63
2018-10-16T15:20:17.316Z,230.63
2018-10-16T15:21:17.229Z,219.38
2018-10-16T15:22:17.344Z,202.50
2018-10-16T15:23:17.201Z,202.50
2018-10-16T15:24:17.193Z,196.88
2018-10-16T15:25:17.181Z,185.63
2018-10-16T15:26:17.170Z,185.63
2018-10-16T15:27:17.171Z,196.88
2018-10-16T15:28:17.190Z,196.88
2018-10-16T15:29:17.136Z,202.50
2018-10-16T15:30:17.121Z,196.88
2018-10-16T15:31:17.110Z,202.50
2018-10-16T15:32:17.134Z,191.25
2018-10-16T15:33:17.087Z,191.25
2018-10-16T15:34:17.077Z,191.25
2018-10-16T15:35:17.071Z,191.25
2018-10-16T15:36:17.068Z,191.25
2018-10-16T15:37:17.048Z,191.25
2018-10-16T15:38:17.041Z,191.25
2018-10-16T15:39:17.017Z,185.63
2018-10-16T15:40:17.004Z,180.00
2018-10-16T15:41:17.066Z,174.38
2018-10-16T15:42:17.031Z,168.75
2018-10-16T15:43:16.982Z,163.13
2018-10-16T15:44:16.956Z,157.50
2018-10-16T15:45:16.959Z,151.88
2018-10-16T15:46:16.931Z,146.25
2018-10-16T15:47:16.921Z,140.63
2018-10-16T15:48:16.928Z,140.63
2018-10-16T15:49:16.895Z,140.63
2018-10-16T15:50:16.884Z,135.00
2018-10-16T15:51:16.872Z,129.38
2018-10-16T15:52:16.936Z,123.75
2018-10-16T15:53:16.849Z,112.50
2018-10-16T15:54:16.848Z,112.50
2018-10-16T15:55:16.827Z,106.88
2018-10-16T15:56:16.807Z,106.88
2018-10-16T15:57:16.794Z,106.88
2018-10-16T15:58:16.840Z,106.88
2018-10-16T15:59:16.786Z,101.25
2018-10-16T16:00:16.802Z,101.25
2018-10-16T16:01:16.744Z,101.25
2018-10-16T16:02:16.745Z,101.25
2018-10-16T16:03:16.718Z,95.63
2018-10-16T16:04:16.721Z,95.63
2018-10-16T16:05:16.693Z,90.00
2018-10-16T16:06:16.681Z,90.00
2018-10-16T16:07:16.676Z,84.38
2018-10-16T16:08:16.657Z,78.75
2018-10-16T16:09:16.661Z,78.75
2018-10-16T16:10:16.681Z,73.13
2018-10-16T16:11:16.616Z,73.13
2018-10-16T16:12:16.605Z,67.50
2018-10-16T16:13:16.592Z,67.50
2018-10-16T16:14:16.585Z,67.50
2018-10-16T16:15:16.578Z,61.88
2018-10-16T16:16:16.561Z,61.88
2018-10-16T16:17:16.539Z,56.25
2018-10-16T16:18:16.565Z,56.25
2018-10-16T16:19:16.519Z,50.63
2018-10-16T16:20:16.517Z,50.63
2018-10-16T16:21:16.494Z,50.63
2018-10-16T16:22:16.472Z,45.00
2018-10-16T16:23:16.462Z,39.38
2018-10-16T16:24:16.466Z,33.75
2018-10-16T16:25:16.434Z,33.75
2018-10-16T16:26:16.476Z,28.13
2018-10-16T16:27:16.409Z,28.13
2018-10-16T16:28:16.484Z,22.50
2018-10-16T16:29:16.400Z,22.50
2018-10-16T16:30:16.438Z,22.50
2018-10-16T16:31:16.352Z,22.50
2018-10-16T16:32:16.381Z,22.50
2018-10-16T16:33:16.325Z,16.88
2018-10-16T16:34:16.312Z,16.88
2018-10-16T16:35:16.314Z,16.88
2018-10-16T16:36:16.293Z,16.88
2018-10-16T16:37:16.273Z,11.25
2018-10-16T16:38:16.404Z,11.25
2018-10-16T16:39:16.276Z,11.25
2018-10-16T16:40:16.253Z,11.25
2018-10-16T16:41:16.217Z,11.25
2018-10-16T16:42:16.202Z,11.25
2018-10-16T16:43:16.191Z,5.63
2018-10-16T16:44:16.273Z,5.63
2018-10-16T16:45:16.173Z,5.63
2018-10-16T16:46:16.147Z,5.63
2018-10-16T16:47:16.131Z,5.63
2018-10-16T16:48:16.117Z,0.00
2018-10-16T16:49:16.105Z,0.00
2018-10-16T16:50:16.109Z,0.00
2018-10-16T16:51:16.139Z,0.00
2018-10-16T16:52:16.068Z,0.00
2018-10-16T16:53:16.148Z,0.00
2018-10-16T16:54:16.035Z,0.00
2018-10-16T16:55:16.018Z,0.00
2018-10-16T16:56:16.066Z,0.00
2018-10-16T16:57:15.991Z,0.00
2018-10-16T16:58:15.978Z,0.00
2018-10-16T16:59:15.963Z,0.00
2018-10-16T17:00:15.950Z,0.00
2018-10-16T17:01:15.953Z,0.00
2018-10-16T17:02:15.920Z,0.00
2018-10-16T17:03:15.904Z,0.00
2018-10-16T17:04:15.891Z,0.00
2018-10-16T17:05:15.876Z,0.00
2018-10-16T17:06:15.880Z,0.00
2018-10-16T17:07:15.853Z,0.00
2018-10-16T17:08:15.840Z,0.00
2018-10-16T17:09:15.819Z,0.00
2018-10-16T17:10:15.886Z,0.00
2018-10-16T17:11:15.791Z,0.00
2018-10-16T17:12:15.789Z,0.00
2018-10-16T17:13:15.760Z,0.00
2018-10-16T17:14:15.748Z,0.00
2018-10-16T17:15:15.748Z,0.00
2018-10-16T17:16:15.718Z,0.00
2018-10-16T17:17:15.721Z,0.00
2018-10-16T17:18:15.707Z,0.00
2018-10-16T17:19:15.680Z,0.00
2018-10-16T17:20:15.663Z,0.00
2018-10-16T17:21:15.642Z,0.00
2018-10-16T17:22:15.647Z,0.00
2018-10-16T17:23:15.611Z,0.00
2018-10-16T17:24:15.604Z,0.00
2018-10-16T17:25:15.715Z,0.00
2018-10-16T17:26:15.849Z,0.00
2018-10-16T17:27:15.556Z,0.00
2018-10-16T17:28:15.653Z,0.00
2018-10-16T17:29:15.524Z,0.00
2018-10-16T17:30:15.508Z,0.00
2018-10-16T17:31:15.490Z,0.00
2018-10-16T17:32:15.479Z,0.00
2018-10-16T17:33:15.522Z,0.00
2018-10-16T17:34:15.454Z,0.00
2018-10-16T17:35:15.430Z,0.00
2018-10-16T17:36:15.415Z,0.00
2018-10-16T17:37:15.404Z,0.00
2018-10-16T17:38:15.407Z,0.00
2018-10-16T17:39:15.433Z,0.00
2018-10-16T17:40:15.360Z,0.00
2018-10-16T17:41:15.341Z,0.00
2018-10-16T17:42:15.327Z,0.00
2018-10-16T17:43:15.357Z,0.00
2018-10-16T17:44:15.316Z,0.00
2018-10-16T17:45:15.321Z,0.00
2018-10-16T17:46:15.288Z,0.00
2018-10-16T17:47:15.253Z,0.00
2018-10-16T17:48:15.296Z,0.00
2018-10-16T17:49:15.220Z,0.00
2018-10-16T17:50:15.204Z,0.00
2018-10-16T17:51:15.193Z,0.00
2018-10-16T17:52:15.175Z,0.00
2018-10-16T17:53:15.175Z,0.00
2018-10-16T17:54:15.145Z,0.00
2018-10-16T17:55:15.131Z,0.00
2018-10-16T17:56:15.112Z,0.00
2018-10-16T17:57:15.100Z,0.00
2018-10-16T17:58:15.096Z,0.00
2018-10-16T17:59:15.066Z,0.00
2018-10-16T18:00:15.052Z,0.00
2018-10-16T18:01:15.061Z,0.00
2018-10-16T18:02:15.028Z,0.00
2018-10-16T18:03:15.093Z,0.00
2018-10-16T18:04:14.992Z,0.00
2018-10-16T18:05:14.978Z,0.00
2018-10-16T18:06:14.962Z,0.00
2018-10-16T18:07:14.944Z,0.00
2018-10-16T18:08:14.948Z,0.00
2018-10-16T18:09:14.913Z,0.00
2018-10-16T18:10:14.901Z,0.00
2018-10-16T18:11:14.884Z,0.00
2018-10-16T18:12:14.866Z,0.00
2018-10-16T18:13:14.867Z,0.00
2018-10-16T18:14:14.836Z,0.00
2018-10-16T18:15:14.898Z,0.00
2018-10-16T18:16:14.809Z,0.00
2018-10-16T18:17:14.792Z,0.00
2018-10-16T18:18:14.839Z,0.00
2018-10-16T18:19:14.761Z,0.00
2018-10-16T18:20:14.748Z,0.00
2018-10-16T18:21:14.727Z,0.00
2018-10-16T18:22:24.928Z,0.00
2018-10-16T18:23:14.696Z,0.00
2018-10-16T18:24:14.683Z,0.00
2018-10-16T18:25:14.670Z,0.00
2018-10-16T18:26:14.647Z,0.00
2018-10-16T18:27:14.635Z,0.00
2018-10-16T18:28:14.631Z,0.00
2018-10-16T18:29:14.602Z,0.00
2018-10-16T18:30:14.592Z,0.00
2018-10-16T18:31:14.570Z,0.00
2018-10-16T18:32:14.558Z,0.00
2018-10-16T18:33:14.625Z,0.00
2018-10-16T18:34:14.524Z,0.00
2018-10-16T18:35:14.508Z,0.00
2018-10-16T18:36:14.496Z,0.00
2018-10-16T18:37:14.475Z,0.00
2018-10-16T18:38:14.476Z,0.00
2018-10-16T18:39:14.603Z,0.00
2018-10-16T18:40:14.434Z,0.00
2018-10-16T18:41:14.413Z,0.00
2018-10-16T18:42:14.397Z,0.00
2018-10-16T18:43:14.399Z,0.00
2018-10-16T18:44:14.373Z,0.00
2018-10-16T18:45:14.388Z,0.00
2018-10-16T18:46:14.335Z,0.00
2018-10-16T18:47:14.318Z,0.00
2018-10-16T18:48:14.305Z,0.00
2018-10-16T18:49:14.303Z,0.00
2018-10-16T18:50:14.272Z,0.00
2018-10-16T18:51:14.331Z,0.00
2018-10-16T18:52:14.247Z,0.00
2018-10-16T18:53:14.225Z,0.00
2018-10-16T18:54:14.254Z,0.00
2018-10-16T18:55:14.200Z,0.00
2018-10-16T18:56:14.187Z,0.00
2018-10-16T18:57:14.257Z,0.00
2018-10-16T18:58:14.188Z,0.00
2018-10-16T18:59:14.129Z,0.00
2018-10-16T19:00:14.123Z,0.00
2018-10-16T19:01:14.100Z,0.00
2018-10-16T19:02:14.152Z,0.00
2018-10-16T19:03:14.134Z,0.00
2018-10-16T19:04:14.069Z,0.00
2018-10-16T19:05:14.037Z,0.00
2018-10-16T19:06:14.024Z,0.00
2018-10-16T19:07:14.007Z,0.00
2018-10-16T19:08:13.999Z,0.00
2018-10-16T19:09:14.097Z,0.00
2018-10-16T19:10:13.957Z,0.00
2018-10-16T19:11:13.942Z,0.00
2018-10-16T19:12:13.927Z,0.00
2018-10-16T19:13:13.906Z,0.00
2018-10-16T19:14:13.908Z,0.00
2018-10-16T19:15:14.046Z,0.00
2018-10-16T19:16:13.863Z,0.00
2018-10-16T19:17:13.844Z,0.00
2018-10-16T19:18:13.830Z,0.00
2018-10-16T19:19:13.834Z,0.00
2018-10-16T19:20:13.870Z,0.00
2018-10-16T19:21:13.855Z,0.00
2018-10-16T19:22:13.763Z,0.00
2018-10-16T19:23:13.751Z,0.00
2018-10-16T19:24:13.756Z,0.00
2018-10-16T19:25:13.714Z,0.00
2018-10-16T19:26:13.699Z,0.00
2018-10-16T19:27:13.793Z,0.00
2018-10-16T19:28:13.668Z,0.00
2018-10-16T19:29:13.650Z,0.00
2018-10-16T19:30:13.654Z,0.00
2018-10-16T19:31:13.619Z,0.00
2018-10-16T19:32:13.605Z,0.00
2018-10-16T19:33:13.657Z,0.00
2018-10-16T19:34:13.568Z,0.00
2018-10-16T19:35:13.569Z,0.00
2018-10-16T19:36:13.542Z,0.00
2018-10-16T19:37:13.524Z,0.00
2018-10-16T19:38:13.504Z,0.00
2018-10-16T19:39:13.505Z,0.00
2018-10-16T19:40:13.487Z,0.00
2018-10-16T19:41:13.460Z,0.00
2018-10-16T19:42:13.441Z,0.00
2018-10-16T19:43:13.424Z,0.00
2018-10-16T19:44:13.407Z,0.00
2018-10-16T19:45:13.479Z,0.00
2018-10-16T19:46:13.377Z,0.00
2018-10-16T19:47:13.364Z,0.00
2018-10-16T19:48:13.340Z,0.00
2018-10-16T19:49:13.348Z,0.00
2018-10-16T19:50:13.325Z,0.00
2018-10-16T19:51:13.370Z,0.00
2018-10-16T19:52:13.282Z,0.00
2018-10-16T19:53:13.272Z,0.00
2018-10-16T19:54:13.245Z,0.00
2018-10-16T19:55:13.242Z,0.00
2018-10-16T19:56:13.209Z,0.00
2018-10-16T19:57:13.284Z,0.00
2018-10-16T19:58:13.182Z,0.00
2018-10-16T19:59:13.164Z,0.00
2018-10-16T20:00:13.180Z,0.00
2018-10-16T20:01:13.128Z,0.00
2018-10-16T20:02:13.110Z,0.00
2018-10-16T20:03:13.178Z,0.00
2018-10-16T20:04:13.081Z,0.00
2018-10-16T20:05:13.073Z,0.00
2018-10-16T20:06:13.045Z,0.00
2018-10-16T20:07:13.094Z,0.00
2018-10-16T20:08:13.010Z,0.00
2018-10-16T20:09:13.073Z,0.00
2018-10-16T20:10:12.994Z,0.00
2018-10-16T20:11:12.961Z,0.00
2018-10-16T20:12:12.947Z,0.00
2018-10-16T20:13:12.927Z,0.00
2018-10-16T20:14:13.000Z,0.00
2018-10-16T20:15:12.896Z,0.00
2018-10-16T20:16:12.897Z,0.00
2018-10-16T20:17:12.861Z,0.00
2018-10-16T20:18:12.845Z,0.00
2018-10-16T20:19:12.829Z,0.00
2018-10-16T20:20:12.811Z,0.00
2018-10-16T20:21:12.807Z,0.00
2018-10-16T20:22:12.779Z,0.00
2018-10-16T20:23:12.761Z,0.00
2018-10-16T20:24:12.769Z,0.00
2018-10-16T20:25:12.804Z,0.00
2018-10-16T20:26:12.721Z,0.00
2018-10-16T20:27:12.690Z,0.00
2018-10-16T20:28:12.680Z,0.00
2018-10-16T20:29:12.657Z,0.00
2018-10-16T20:30:12.645Z,0.00
2018-10-16T20:31:12.738Z,0.00
2018-10-16T20:32:12.610Z,0.00
2018-10-16T20:33:12.594Z,0.00
2018-10-16T20:34:12.573Z,0.00
2018-10-16T20:35:12.556Z,0.00
2018-10-16T20:36:12.556Z,0.00
2018-10-16T20:37:12.590Z,0.00
2018-10-16T20:38:12.509Z,0.00
2018-10-16T20:39:12.491Z,0.00
2018-10-16T20:40:12.472Z,0.00
2018-10-16T20:41:12.479Z,0.00
2018-10-16T20:42:12.579Z,0.00
2018-10-16T20:43:12.504Z,0.00
2018-10-16T20:44:12.402Z,0.00
2018-10-16T20:45:12.386Z,0.00
2018-10-16T20:46:12.376Z,0.00
2018-10-16T20:47:12.368Z,0.00
2018-10-16T20:48:12.333Z,0.00
2018-10-16T20:49:12.371Z,0.00
2018-10-16T20:50:12.303Z,0.00
2018-10-16T20:51:12.287Z,0.00
2018-10-16T20:52:12.291Z,0.00
2018-10-16T20:53:12.256Z,0.00
2018-10-16T20:54:12.233Z,0.00
2018-10-16T20:55:12.285Z,0.00
2018-10-16T20:56:12.202Z,0.00
2018-10-16T20:57:12.192Z,0.00
2018-10-16T20:58:12.164Z,0.00
2018-10-16T20:59:12.147Z,0.00
2018-10-16T21:00:12.130Z,0.00
2018-10-16T21:01:12.205Z,0.00
2018-10-16T21:02:12.119Z,0.00
2018-10-16T21:03:12.083Z,0.00
2018-10-16T21:04:12.062Z,0.00
2018-10-16T21:05:12.161Z,0.00
2018-10-16T21:06:12.261Z,0.00
2018-10-16T21:07:12.039Z,0.00
2018-10-16T21:08:12.012Z,0.00
2018-10-16T21:09:11.982Z,0.00
2018-10-16T21:10:11.960Z,0.00
2018-10-16T21:11:11.971Z,0.00
2018-10-16T21:12:11.923Z,0.00
2018-10-16T21:13:11.976Z,0.00
2018-10-16T21:14:11.888Z,0.00
2018-10-16T21:15:11.876Z,0.00
2018-10-16T21:16:11.856Z,0.00
2018-10-16T21:17:11.835Z,0.00
2018-10-16T21:18:11.859Z,0.00
2018-10-16T21:19:11.876Z,0.00
2018-10-16T21:20:11.786Z,0.00
2018-10-16T21:21:11.779Z,0.00
2018-10-16T21:22:11.758Z,0.00
2018-10-16T21:23:11.853Z,0.00
2018-10-16T21:24:11.729Z,0.00
2018-10-16T21:25:11.817Z,0.00
2018-10-16T21:26:11.683Z,0.00
2018-10-16T21:27:11.661Z,0.00
2018-10-16T21:28:11.663Z,0.00
2018-10-16T21:29:11.685Z,0.00
2018-10-16T21:30:11.611Z,0.00
2018-10-16T21:31:11.612Z,0.00
2018-10-16T21:32:11.577Z,0.00
2018-10-16T21:33:11.573Z,0.00
2018-10-16T21:34:11.541Z,0.00
2018-10-16T21:35:11.663Z,0.00
2018-10-16T21:36:11.509Z,0.00
2018-10-16T21:37:11.521Z,0.00
2018-10-16T21:38:11.487Z,0.00
2018-10-16T21:39:11.484Z,0.00
2018-10-16T21:40:11.435Z,0.00
2018-10-16T21:41:11.476Z,0.00
2018-10-16T21:42:11.415Z,0.00
2018-10-16T21:43:11.483Z,0.00
2018-10-16T21:44:11.366Z,0.00
2018-10-16T21:45:11.349Z,0.00
2018-10-16T21:46:11.335Z,0.00
2018-10-16T21:47:11.358Z,0.00
2018-10-16T21:48:11.309Z,0.00
2018-10-16T21:49:11.367Z,0.00
2018-10-16T21:50:11.260Z,0.00
2018-10-16T21:51:11.264Z,0.00
2018-10-16T21:52:11.222Z,0.00
2018-10-16T21:53:11.315Z,0.00
2018-10-16T21:54:11.187Z,0.00
2018-10-16T21:55:11.251Z,0.00
2018-10-16T21:56:11.152Z,0.00
2018-10-16T21:57:11.134Z,0.00
2018-10-16T21:58:11.133Z,0.00
2018-10-16T21:59:11.109Z,0.00
2018-10-16T22:00:11.081Z,0.00
2018-10-16T22:01:11.182Z,0.00
2018-10-16T22:02:11.044Z,0.00
2018-10-16T22:03:11.065Z,0.00
2018-10-16T22:04:11.052Z,0.00
2018-10-16T22:05:11.068Z,0.00
2018-10-16T22:06:10.973Z,0.00
2018-10-16T22:07:10.964Z,0.00
2018-10-16T22:08:10.967Z,0.00
2018-10-16T22:09:10.921Z,0.00
2018-10-16T22:10:10.901Z,0.00
2018-10-16T22:11:10.910Z,0.00
2018-10-16T22:12:10.879Z,0.00
2018-10-16T22:13:10.915Z,0.00
2018-10-16T22:14:10.831Z,0.00
2018-10-16T22:15:10.887Z,0.00
2018-10-16T22:16:10.797Z,0.00
2018-10-16T22:17:10.837Z,0.00
2018-10-16T22:18:10.774Z,0.00
2018-10-16T22:19:10.813Z,0.00
2018-10-16T22:20:10.731Z,0.00
2018-10-16T22:21:10.706Z,0.00
2018-10-16T22:22:10.684Z,0.00
2018-10-16T22:23:10.712Z,0.00
2018-10-16T22:24:10.657Z,0.00
2018-10-16T22:25:10.663Z,0.00
2018-10-16T22:26:10.614Z,0.00
2018-10-16T22:27:10.596Z,0.00
2018-10-16T22:28:10.595Z,0.00
2018-10-16T22:29:10.609Z,0.00
2018-10-16T22:30:10.544Z,0.00
2018-10-16T22:31:10.560Z,0.00
2018-10-16T22:32:10.510Z,0.00
2018-10-16T22:33:10.503Z,0.00
2018-10-16T22:34:10.474Z,0.00
2018-10-16T22:35:10.486Z,0.00
2018-10-16T22:36:10.443Z,0.00
2018-10-16T22:37:10.521Z,0.00
2018-10-16T22:38:10.410Z,0.00
2018-10-16T22:39:10.385Z,0.00
2018-10-16T22:40:10.408Z,0.00
2018-10-16T22:41:10.409Z,0.00
2018-10-16T22:42:10.327Z,0.00
2018-10-16T22:43:10.414Z,0.00
2018-10-16T22:44:10.300Z,0.00
2018-10-16T22:45:10.271Z,0.00
